sensor_id;sensor_type;location;lat;lon;timestamp;temperature;humidity
7388;DHT22;3735;50.136;11.062;2022-07-24T00:00:39;16.00;99.90
7388;DHT22;3735;50.136;11.062;2022-07-24T00:03:05;15.90;99.90
7388;DHT22;3735;50.136;11.062;2022-07-24T00:05:32;15.90;99.90
7388;DHT22;3735;50.136;11.062;2022-07-24T00:07:58;15.80;99.90
7388;DHT22;3735;50.136;11.062;2022-07-24T00:10:24;15.70;99.90
7388;DHT22;3735;50.136;11.062;2022-07-24T00:12:50;15.80;99.90
7388;DHT22;3735;50.136;11.062;2022-07-24T00:15:17;15.70;99.90
7388;DHT22;3735;50.136;11.062;2022-07-24T00:17:42;15.70;99.90
7388;DHT22;3735;50.136;11.062;2022-07-24T00:20:09;15.60;99.90
7388;DHT22;3735;50.136;11.062;2022-07-24T00:22:36;15.50;99.90
7388;DHT22;3735;50.136;11.062;2022-07-24T00:25:02;15.50;99.90
7388;DHT22;3735;50.136;11.062;2022-07-24T00:27:28;15.50;99.90
7388;DHT22;3735;50.136;11.062;2022-07-24T00:29:54;15.60;99.90
7388;DHT22;3735;50.136;11.062;2022-07-24T00:32:20;15.70;99.90
7388;DHT22;3735;50.136;11.062;2022-07-24T00:34:46;15.90;99.90
7388;DHT22;3735;50.136;11.062;2022-07-24T00:37:11;16.00;99.90
7388;DHT22;3735;50.136;11.062;2022-07-24T00:39:37;16.00;99.90
7388;DHT22;3735;50.136;11.062;2022-07-24T00:42:03;16.00;99.90
7388;DHT22;3735;50.136;11.062;2022-07-24T00:44:29;15.90;99.90
7388;DHT22;3735;50.136;11.062;2022-07-24T00:46:55;15.90;99.90
7388;DHT22;3735;50.136;11.062;2022-07-24T00:49:21;15.80;99.90
7388;DHT22;3735;50.136;11.062;2022-07-24T00:51:49;15.80;99.90
7388;DHT22;3735;50.136;11.062;2022-07-24T00:54:18;15.70;99.90
7388;DHT22;3735;50.136;11.062;2022-07-24T00:56:48;15.70;99.90
7388;DHT22;3735;50.136;11.062;2022-07-24T00:59:15;15.60;99.90
7388;DHT22;3735;50.136;11.062;2022-07-24T01:01:44;15.60;99.90
7388;DHT22;3735;50.136;11.062;2022-07-24T01:04:10;15.60;99.90
7388;DHT22;3735;50.136;11.062;2022-07-24T01:06:36;15.50;99.90
7388;DHT22;3735;50.136;11.062;2022-07-24T01:09:02;15.50;99.90
7388;DHT22;3735;50.136;11.062;2022-07-24T01:11:28;15.40;99.90
7388;DHT22;3735;50.136;11.062;2022-07-24T01:13:54;15.50;99.90
7388;DHT22;3735;50.136;11.062;2022-07-24T01:16:21;15.40;99.90
7388;DHT22;3735;50.136;11.062;2022-07-24T01:18:46;15.50;99.90
7388;DHT22;3735;50.136;11.062;2022-07-24T01:21:12;15.50;99.90
7388;DHT22;3735;50.136;11.062;2022-07-24T01:23:38;15.50;99.90
7388;DHT22;3735;50.136;11.062;2022-07-24T01:26:06;15.60;99.90
7388;DHT22;3735;50.136;11.062;2022-07-24T01:28:32;15.70;99.90
7388;DHT22;3735;50.136;11.062;2022-07-24T01:30:58;15.70;99.90
7388;DHT22;3735;50.136;11.062;2022-07-24T01:33:24;15.80;99.90
7388;DHT22;3735;50.136;11.062;2022-07-24T01:35:50;15.80;99.90
7388;DHT22;3735;50.136;11.062;2022-07-24T01:38:17;15.90;99.90
7388;DHT22;3735;50.136;11.062;2022-07-24T01:40:43;15.90;99.90
7388;DHT22;3735;50.136;11.062;2022-07-24T01:43:09;16.00;99.90
7388;DHT22;3735;50.136;11.062;2022-07-24T01:45:35;16.00;99.90
7388;DHT22;3735;50.136;11.062;2022-07-24T01:48:02;16.00;99.90
7388;DHT22;3735;50.136;11.062;2022-07-24T01:50:29;15.90;99.90
7388;DHT22;3735;50.136;11.062;2022-07-24T01:52:55;16.00;99.90
7388;DHT22;3735;50.136;11.062;2022-07-24T01:55:21;15.90;99.90
7388;DHT22;3735;50.136;11.062;2022-07-24T01:57:48;15.90;99.90
7388;DHT22;3735;50.136;11.062;2022-07-24T02:00:15;15.90;99.90
7388;DHT22;3735;50.136;11.062;2022-07-24T02:02:43;15.90;99.90
7388;DHT22;3735;50.136;11.062;2022-07-24T02:05:11;15.80;99.90
7388;DHT22;3735;50.136;11.062;2022-07-24T02:07:42;15.80;99.90
7388;DHT22;3735;50.136;11.062;2022-07-24T02:10:10;15.80;99.90
7388;DHT22;3735;50.136;11.062;2022-07-24T02:12:37;15.80;99.90
7388;DHT22;3735;50.136;11.062;2022-07-24T02:15:04;15.90;99.90
7388;DHT22;3735;50.136;11.062;2022-07-24T02:17:30;15.70;99.90
7388;DHT22;3735;50.136;11.062;2022-07-24T02:19:56;15.60;99.90
7388;DHT22;3735;50.136;11.062;2022-07-24T02:22:21;15.50;99.90
7388;DHT22;3735;50.136;11.062;2022-07-24T02:24:47;15.40;99.90
7388;DHT22;3735;50.136;11.062;2022-07-24T02:27:13;15.30;99.90
7388;DHT22;3735;50.136;11.062;2022-07-24T02:29:39;15.40;99.90
7388;DHT22;3735;50.136;11.062;2022-07-24T02:32:05;15.30;99.90
7388;DHT22;3735;50.136;11.062;2022-07-24T02:34:32;15.30;99.90
7388;DHT22;3735;50.136;11.062;2022-07-24T02:36:58;15.20;99.90
7388;DHT22;3735;50.136;11.062;2022-07-24T02:39:23;15.20;99.90
7388;DHT22;3735;50.136;11.062;2022-07-24T02:41:49;15.10;99.90
7388;DHT22;3735;50.136;11.062;2022-07-24T02:44:15;15.10;99.90
7388;DHT22;3735;50.136;11.062;2022-07-24T02:46:41;15.00;99.90
7388;DHT22;3735;50.136;11.062;2022-07-24T02:49:07;15.00;99.90
7388;DHT22;3735;50.136;11.062;2022-07-24T02:51:33;15.00;99.90
7388;DHT22;3735;50.136;11.062;2022-07-24T02:53:59;14.90;99.90
7388;DHT22;3735;50.136;11.062;2022-07-24T02:56:24;14.90;99.90
7388;DHT22;3735;50.136;11.062;2022-07-24T02:58:50;15.00;99.90
7388;DHT22;3735;50.136;11.062;2022-07-24T03:01:16;15.00;99.90
7388;DHT22;3735;50.136;11.062;2022-07-24T03:03:41;15.00;99.90
7388;DHT22;3735;50.136;11.062;2022-07-24T03:06:07;14.90;99.90
7388;DHT22;3735;50.136;11.062;2022-07-24T03:08:33;14.80;99.90
7388;DHT22;3735;50.136;11.062;2022-07-24T03:10:59;14.70;99.90
7388;DHT22;3735;50.136;11.062;2022-07-24T03:13:24;14.60;99.90
7388;DHT22;3735;50.136;11.062;2022-07-24T03:15:50;14.50;99.90
7388;DHT22;3735;50.136;11.062;2022-07-24T03:18:16;14.60;99.90
7388;DHT22;3735;50.136;11.062;2022-07-24T03:20:42;14.50;99.90
7388;DHT22;3735;50.136;11.062;2022-07-24T03:23:07;14.50;99.90
7388;DHT22;3735;50.136;11.062;2022-07-24T03:25:33;14.50;99.90
7388;DHT22;3735;50.136;11.062;2022-07-24T03:27:59;14.50;99.90
7388;DHT22;3735;50.136;11.062;2022-07-24T03:30:25;14.40;99.90
7388;DHT22;3735;50.136;11.062;2022-07-24T03:32:50;14.40;99.90
7388;DHT22;3735;50.136;11.062;2022-07-24T03:35:16;14.30;99.90
7388;DHT22;3735;50.136;11.062;2022-07-24T03:37:42;14.30;99.90
7388;DHT22;3735;50.136;11.062;2022-07-24T03:40:08;14.30;99.90
7388;DHT22;3735;50.136;11.062;2022-07-24T03:42:35;14.30;99.90
7388;DHT22;3735;50.136;11.062;2022-07-24T03:45:01;14.30;99.90
7388;DHT22;3735;50.136;11.062;2022-07-24T03:47:27;14.30;99.90
7388;DHT22;3735;50.136;11.062;2022-07-24T03:49:53;14.20;99.90
7388;DHT22;3735;50.136;11.062;2022-07-24T03:52:18;14.20;99.90
7388;DHT22;3735;50.136;11.062;2022-07-24T03:54:44;14.30;99.90
7388;DHT22;3735;50.136;11.062;2022-07-24T03:57:10;14.30;99.90
7388;DHT22;3735;50.136;11.062;2022-07-24T03:59:36;14.30;99.90
7388;DHT22;3735;50.136;11.062;2022-07-24T04:02:02;14.40;99.90
7388;DHT22;3735;50.136;11.062;2022-07-24T04:04:28;14.50;99.90
7388;DHT22;3735;50.136;11.062;2022-07-24T04:06:53;14.50;99.90
7388;DHT22;3735;50.136;11.062;2022-07-24T04:09:19;14.50;99.90
7388;DHT22;3735;50.136;11.062;2022-07-24T04:11:45;14.50;99.90
7388;DHT22;3735;50.136;11.062;2022-07-24T04:14:12;14.50;99.90
7388;DHT22;3735;50.136;11.062;2022-07-24T04:16:38;14.50;99.90
7388;DHT22;3735;50.136;11.062;2022-07-24T04:19:04;14.50;99.90
7388;DHT22;3735;50.136;11.062;2022-07-24T04:21:29;14.60;99.90
7388;DHT22;3735;50.136;11.062;2022-07-24T04:23:55;14.60;99.90
7388;DHT22;3735;50.136;11.062;2022-07-24T04:26:21;14.60;99.90
7388;DHT22;3735;50.136;11.062;2022-07-24T04:28:47;14.80;99.90
7388;DHT22;3735;50.136;11.062;2022-07-24T04:31:13;14.80;99.90
7388;DHT22;3735;50.136;11.062;2022-07-24T04:33:39;14.90;99.90
7388;DHT22;3735;50.136;11.062;2022-07-24T04:36:05;14.90;99.90
7388;DHT22;3735;50.136;11.062;2022-07-24T04:38:34;15.00;99.90
7388;DHT22;3735;50.136;11.062;2022-07-24T04:41:01;15.10;99.90
7388;DHT22;3735;50.136;11.062;2022-07-24T04:43:27;15.20;99.90
7388;DHT22;3735;50.136;11.062;2022-07-24T04:45:53;15.30;99.90
7388;DHT22;3735;50.136;11.062;2022-07-24T04:48:19;15.40;99.90
7388;DHT22;3735;50.136;11.062;2022-07-24T04:50:45;15.60;99.90
7388;DHT22;3735;50.136;11.062;2022-07-24T04:53:11;15.80;99.90
7388;DHT22;3735;50.136;11.062;2022-07-24T04:55:37;15.90;99.90
7388;DHT22;3735;50.136;11.062;2022-07-24T04:58:03;16.00;99.90
7388;DHT22;3735;50.136;11.062;2022-07-24T05:00:29;16.10;99.90
7388;DHT22;3735;50.136;11.062;2022-07-24T05:02:54;16.20;99.90
7388;DHT22;3735;50.136;11.062;2022-07-24T05:05:20;16.30;99.90
7388;DHT22;3735;50.136;11.062;2022-07-24T05:07:46;16.50;99.90
7388;DHT22;3735;50.136;11.062;2022-07-24T05:10:12;16.60;99.90
7388;DHT22;3735;50.136;11.062;2022-07-24T05:12:38;16.70;99.90
7388;DHT22;3735;50.136;11.062;2022-07-24T05:15:05;16.90;99.90
7388;DHT22;3735;50.136;11.062;2022-07-24T05:17:33;16.90;99.90
7388;DHT22;3735;50.136;11.062;2022-07-24T05:20:00;17.00;99.90
7388;DHT22;3735;50.136;11.062;2022-07-24T05:22:26;17.10;99.90
7388;DHT22;3735;50.136;11.062;2022-07-24T05:24:51;17.20;99.90
7388;DHT22;3735;50.136;11.062;2022-07-24T05:27:17;17.40;99.90
7388;DHT22;3735;50.136;11.062;2022-07-24T05:29:43;17.50;99.90
7388;DHT22;3735;50.136;11.062;2022-07-24T05:32:09;17.60;99.90
7388;DHT22;3735;50.136;11.062;2022-07-24T05:34:35;17.80;99.90
7388;DHT22;3735;50.136;11.062;2022-07-24T05:37:00;17.90;99.90
7388;DHT22;3735;50.136;11.062;2022-07-24T05:39:26;18.00;99.90
7388;DHT22;3735;50.136;11.062;2022-07-24T05:41:52;18.20;99.90
7388;DHT22;3735;50.136;11.062;2022-07-24T05:44:18;18.70;99.90
7388;DHT22;3735;50.136;11.062;2022-07-24T05:46:43;19.50;99.90
7388;DHT22;3735;50.136;11.062;2022-07-24T05:49:09;20.40;99.90
7388;DHT22;3735;50.136;11.062;2022-07-24T05:51:35;21.50;99.90
7388;DHT22;3735;50.136;11.062;2022-07-24T05:54:01;22.40;99.90
7388;DHT22;3735;50.136;11.062;2022-07-24T05:56:28;23.20;99.90
7388;DHT22;3735;50.136;11.062;2022-07-24T05:58:54;24.00;99.90
7388;DHT22;3735;50.136;11.062;2022-07-24T06:01:20;24.90;99.90
7388;DHT22;3735;50.136;11.062;2022-07-24T06:03:46;25.50;99.90
7388;DHT22;3735;50.136;11.062;2022-07-24T06:06:11;26.00;99.90
7388;DHT22;3735;50.136;11.062;2022-07-24T06:08:37;26.30;99.90
7388;DHT22;3735;50.136;11.062;2022-07-24T06:11:03;26.50;99.90
7388;DHT22;3735;50.136;11.062;2022-07-24T06:13:29;26.80;99.90
7388;DHT22;3735;50.136;11.062;2022-07-24T06:15:55;27.10;99.90
7388;DHT22;3735;50.136;11.062;2022-07-24T06:18:21;27.10;99.90
7388;DHT22;3735;50.136;11.062;2022-07-24T06:20:47;27.50;99.90
7388;DHT22;3735;50.136;11.062;2022-07-24T06:23:12;27.90;99.90
7388;DHT22;3735;50.136;11.062;2022-07-24T06:25:38;28.20;99.90
7388;DHT22;3735;50.136;11.062;2022-07-24T06:28:04;28.40;99.90
7388;DHT22;3735;50.136;11.062;2022-07-24T06:30:30;28.50;99.90
7388;DHT22;3735;50.136;11.062;2022-07-24T06:32:57;28.80;99.90
7388;DHT22;3735;50.136;11.062;2022-07-24T06:35:25;29.00;99.90
7388;DHT22;3735;50.136;11.062;2022-07-24T06:37:53;29.10;99.90
7388;DHT22;3735;50.136;11.062;2022-07-24T06:40:21;29.40;99.90
7388;DHT22;3735;50.136;11.062;2022-07-24T06:42:47;29.80;99.90
7388;DHT22;3735;50.136;11.062;2022-07-24T06:45:14;30.40;99.90
7388;DHT22;3735;50.136;11.062;2022-07-24T06:47:41;30.90;99.90
7388;DHT22;3735;50.136;11.062;2022-07-24T06:50:08;31.40;97.80
7388;DHT22;3735;50.136;11.062;2022-07-24T06:52:35;31.70;96.90
7388;DHT22;3735;50.136;11.062;2022-07-24T06:55:01;32.20;85.00
7388;DHT22;3735;50.136;11.062;2022-07-24T06:57:26;32.60;84.60
7388;DHT22;3735;50.136;11.062;2022-07-24T06:59:53;32.80;80.80
7388;DHT22;3735;50.136;11.062;2022-07-24T07:02:20;33.10;74.50
7388;DHT22;3735;50.136;11.062;2022-07-24T07:04:47;33.20;75.40
7388;DHT22;3735;50.136;11.062;2022-07-24T07:07:14;33.10;74.30
7388;DHT22;3735;50.136;11.062;2022-07-24T07:09:41;33.20;67.80
7388;DHT22;3735;50.136;11.062;2022-07-24T07:12:08;33.30;73.70
7388;DHT22;3735;50.136;11.062;2022-07-24T07:14:35;33.40;70.90
7388;DHT22;3735;50.136;11.062;2022-07-24T07:17:00;33.70;70.90
7388;DHT22;3735;50.136;11.062;2022-07-24T07:19:26;33.80;69.90
7388;DHT22;3735;50.136;11.062;2022-07-24T07:21:52;34.00;68.80
7388;DHT22;3735;50.136;11.062;2022-07-24T07:24:18;34.40;59.10
7388;DHT22;3735;50.136;11.062;2022-07-24T07:26:44;34.70;56.80
7388;DHT22;3735;50.136;11.062;2022-07-24T07:29:10;34.80;56.40
7388;DHT22;3735;50.136;11.062;2022-07-24T07:31:35;34.90;55.90
7388;DHT22;3735;50.136;11.062;2022-07-24T07:34:01;35.00;54.60
7388;DHT22;3735;50.136;11.062;2022-07-24T07:36:27;35.00;57.40
7388;DHT22;3735;50.136;11.062;2022-07-24T07:38:53;35.30;57.00
7388;DHT22;3735;50.136;11.062;2022-07-24T07:41:19;35.80;52.00
7388;DHT22;3735;50.136;11.062;2022-07-24T07:43:46;36.30;51.80
7388;DHT22;3735;50.136;11.062;2022-07-24T07:46:15;36.50;50.20
7388;DHT22;3735;50.136;11.062;2022-07-24T07:48:41;36.40;48.80
7388;DHT22;3735;50.136;11.062;2022-07-24T07:51:08;36.60;49.80
7388;DHT22;3735;50.136;11.062;2022-07-24T07:53:34;37.00;47.70
7388;DHT22;3735;50.136;11.062;2022-07-24T07:55:59;37.40;44.10
7388;DHT22;3735;50.136;11.062;2022-07-24T07:58:26;37.60;42.40
7388;DHT22;3735;50.136;11.062;2022-07-24T08:00:53;37.80;41.90
7388;DHT22;3735;50.136;11.062;2022-07-24T08:03:19;37.70;42.60
7388;DHT22;3735;50.136;11.062;2022-07-24T08:05:45;37.80;41.70
7388;DHT22;3735;50.136;11.062;2022-07-24T08:08:11;38.00;40.80
7388;DHT22;3735;50.136;11.062;2022-07-24T08:10:38;38.40;40.40
7388;DHT22;3735;50.136;11.062;2022-07-24T08:13:04;39.00;38.40
7388;DHT22;3735;50.136;11.062;2022-07-24T08:15:30;39.20;37.60
7388;DHT22;3735;50.136;11.062;2022-07-24T08:17:57;39.10;38.70
7388;DHT22;3735;50.136;11.062;2022-07-24T08:20:25;39.00;37.30
7388;DHT22;3735;50.136;11.062;2022-07-24T08:22:52;39.00;38.70
7388;DHT22;3735;50.136;11.062;2022-07-24T08:25:20;39.00;37.30
7388;DHT22;3735;50.136;11.062;2022-07-24T08:27:46;39.10;36.50
7388;DHT22;3735;50.136;11.062;2022-07-24T08:30:14;39.00;35.80
7388;DHT22;3735;50.136;11.062;2022-07-24T08:32:40;38.90;37.40
7388;DHT22;3735;50.136;11.062;2022-07-24T08:35:06;39.10;38.60
7388;DHT22;3735;50.136;11.062;2022-07-24T08:37:40;39.40;38.30
7388;DHT22;3735;50.136;11.062;2022-07-24T08:40:08;39.80;35.60
7388;DHT22;3735;50.136;11.062;2022-07-24T08:42:36;39.60;33.00
7388;DHT22;3735;50.136;11.062;2022-07-24T08:45:06;39.10;33.70
7388;DHT22;3735;50.136;11.062;2022-07-24T08:47:33;39.00;34.10
7388;DHT22;3735;50.136;11.062;2022-07-24T08:50:00;39.10;35.00
7388;DHT22;3735;50.136;11.062;2022-07-24T08:52:28;39.50;33.20
7388;DHT22;3735;50.136;11.062;2022-07-24T08:54:55;39.60;32.70
7388;DHT22;3735;50.136;11.062;2022-07-24T08:57:21;39.70;32.30
7388;DHT22;3735;50.136;11.062;2022-07-24T08:59:47;39.80;30.80
7388;DHT22;3735;50.136;11.062;2022-07-24T09:02:13;39.90;30.40
7388;DHT22;3735;50.136;11.062;2022-07-24T09:04:41;40.10;29.90
7388;DHT22;3735;50.136;11.062;2022-07-24T09:07:14;40.50;28.00
7388;DHT22;3735;50.136;11.062;2022-07-24T09:09:44;40.60;27.10
7388;DHT22;3735;50.136;11.062;2022-07-24T09:12:23;40.30;24.70
7388;DHT22;3735;50.136;11.062;2022-07-24T09:14:49;40.40;25.80
7388;DHT22;3735;50.136;11.062;2022-07-24T09:17:17;40.60;26.90
7388;DHT22;3735;50.136;11.062;2022-07-24T09:19:59;41.00;25.70
7388;DHT22;3735;50.136;11.062;2022-07-24T09:22:33;41.40;25.40
7388;DHT22;3735;50.136;11.062;2022-07-24T09:25:22;41.00;24.40
7388;DHT22;3735;50.136;11.062;2022-07-24T09:27:56;40.70;25.10
7388;DHT22;3735;50.136;11.062;2022-07-24T09:30:34;40.80;26.80
7388;DHT22;3735;50.136;11.062;2022-07-24T09:33:13;41.30;27.20
7388;DHT22;3735;50.136;11.062;2022-07-24T09:35:50;41.70;25.80
7388;DHT22;3735;50.136;11.062;2022-07-24T09:38:19;41.90;25.20
7388;DHT22;3735;50.136;11.062;2022-07-24T09:40:51;41.90;24.80
7388;DHT22;3735;50.136;11.062;2022-07-24T09:43:27;41.90;24.30
7388;DHT22;3735;50.136;11.062;2022-07-24T09:46:09;42.20;24.30
7388;DHT22;3735;50.136;11.062;2022-07-24T09:48:40;42.40;24.30
7388;DHT22;3735;50.136;11.062;2022-07-24T09:51:18;42.50;24.00
7388;DHT22;3735;50.136;11.062;2022-07-24T09:53:46;42.50;25.00
7388;DHT22;3735;50.136;11.062;2022-07-24T09:56:17;42.50;23.00
7388;DHT22;3735;50.136;11.062;2022-07-24T09:58:55;42.40;23.40
7388;DHT22;3735;50.136;11.062;2022-07-24T10:01:26;42.60;22.60
7388;DHT22;3735;50.136;11.062;2022-07-24T10:03:54;43.10;23.00
7388;DHT22;3735;50.136;11.062;2022-07-24T10:06:26;43.20;22.60
7388;DHT22;3735;50.136;11.062;2022-07-24T10:08:53;42.60;22.40
7388;DHT22;3735;50.136;11.062;2022-07-24T10:11:20;42.50;23.30
7388;DHT22;3735;50.136;11.062;2022-07-24T10:13:47;42.60;23.10
7388;DHT22;3735;50.136;11.062;2022-07-24T10:18:59;42.50;24.20
7388;DHT22;3735;50.136;11.062;2022-07-24T10:24:11;42.30;23.70
7388;DHT22;3735;50.136;11.062;2022-07-24T10:27:03;42.10;24.40
7388;DHT22;3735;50.136;11.062;2022-07-24T10:29:33;42.50;24.00
7388;DHT22;3735;50.136;11.062;2022-07-24T10:32:01;42.20;23.80
7388;DHT22;3735;50.136;11.062;2022-07-24T10:34:30;41.30;24.70
7388;DHT22;3735;50.136;11.062;2022-07-24T10:37:19;41.40;25.60
7388;DHT22;3735;50.136;11.062;2022-07-24T10:40:13;42.20;25.50
7388;DHT22;3735;50.136;11.062;2022-07-24T10:45:37;43.10;23.30
7388;DHT22;3735;50.136;11.062;2022-07-24T10:48:27;42.10;24.50
7388;DHT22;3735;50.136;11.062;2022-07-24T10:51:04;42.90;24.50
7388;DHT22;3735;50.136;11.062;2022-07-24T10:56:23;44.50;22.90
7388;DHT22;3735;50.136;11.062;2022-07-24T10:59:08;45.00;22.70
7388;DHT22;3735;50.136;11.062;2022-07-24T11:09:24;43.50;22.70
7388;DHT22;3735;50.136;11.062;2022-07-24T11:14:22;43.00;21.60
7388;DHT22;3735;50.136;11.062;2022-07-24T11:16:49;43.10;22.60
7388;DHT22;3735;50.136;11.062;2022-07-24T11:21:44;44.10;22.90
7388;DHT22;3735;50.136;11.062;2022-07-24T11:26:51;43.30;21.30
7388;DHT22;3735;50.136;11.062;2022-07-24T11:29:23;43.10;22.10
7388;DHT22;3735;50.136;11.062;2022-07-24T11:32:05;43.50;22.70
7388;DHT22;3735;50.136;11.062;2022-07-24T11:34:34;43.80;23.00
7388;DHT22;3735;50.136;11.062;2022-07-24T11:37:02;44.10;21.80
7388;DHT22;3735;50.136;11.062;2022-07-24T11:39:35;43.70;21.90
7388;DHT22;3735;50.136;11.062;2022-07-24T11:42:07;43.30;21.90
7388;DHT22;3735;50.136;11.062;2022-07-24T11:44:43;43.00;22.10
7388;DHT22;3735;50.136;11.062;2022-07-24T11:47:17;42.90;22.90
7388;DHT22;3735;50.136;11.062;2022-07-24T11:49:45;43.10;22.10
7388;DHT22;3735;50.136;11.062;2022-07-24T11:52:23;43.70;22.00
7388;DHT22;3735;50.136;11.062;2022-07-24T11:54:54;44.10;21.40
7388;DHT22;3735;50.136;11.062;2022-07-24T11:57:23;44.20;20.90
7388;DHT22;3735;50.136;11.062;2022-07-24T11:59:52;44.10;21.40
7388;DHT22;3735;50.136;11.062;2022-07-24T12:02:19;44.00;21.50
7388;DHT22;3735;50.136;11.062;2022-07-24T12:04:46;43.60;21.10
7388;DHT22;3735;50.136;11.062;2022-07-24T12:07:16;43.60;21.20
7388;DHT22;3735;50.136;11.062;2022-07-24T12:09:59;44.00;22.60
7388;DHT22;3735;50.136;11.062;2022-07-24T12:12:33;44.60;21.60
7388;DHT22;3735;50.136;11.062;2022-07-24T12:15:10;44.80;21.00
7388;DHT22;3735;50.136;11.062;2022-07-24T12:18:04;44.30;20.80
7388;DHT22;3735;50.136;11.062;2022-07-24T12:23:03;43.50;21.10
7388;DHT22;3735;50.136;11.062;2022-07-24T12:25:31;43.50;21.80
7388;DHT22;3735;50.136;11.062;2022-07-24T12:28:08;43.60;22.00
7388;DHT22;3735;50.136;11.062;2022-07-24T12:30:45;43.70;22.40
7388;DHT22;3735;50.136;11.062;2022-07-24T12:36:00;43.80;22.50
7388;DHT22;3735;50.136;11.062;2022-07-24T12:41:18;44.20;21.40
7388;DHT22;3735;50.136;11.062;2022-07-24T12:46:43;43.60;20.70
7388;DHT22;3735;50.136;11.062;2022-07-24T12:49:17;43.30;21.20
7388;DHT22;3735;50.136;11.062;2022-07-24T12:54:27;42.40;21.80
7388;DHT22;3735;50.136;11.062;2022-07-24T12:56:56;42.70;22.40
7388;DHT22;3735;50.136;11.062;2022-07-24T12:59:31;42.90;22.80
7388;DHT22;3735;50.136;11.062;2022-07-24T13:02:10;43.50;22.20
7388;DHT22;3735;50.136;11.062;2022-07-24T13:04:42;43.50;20.90
7388;DHT22;3735;50.136;11.062;2022-07-24T13:07:10;43.50;22.20
7388;DHT22;3735;50.136;11.062;2022-07-24T13:09:36;43.80;21.70
7388;DHT22;3735;50.136;11.062;2022-07-24T13:12:02;44.20;22.30
7388;DHT22;3735;50.136;11.062;2022-07-24T13:14:30;44.40;21.00
7388;DHT22;3735;50.136;11.062;2022-07-24T13:17:02;44.50;21.00
7388;DHT22;3735;50.136;11.062;2022-07-24T13:19:43;44.20;19.60
7388;DHT22;3735;50.136;11.062;2022-07-24T13:22:12;43.60;20.10
7388;DHT22;3735;50.136;11.062;2022-07-24T13:24:39;43.70;20.60
7388;DHT22;3735;50.136;11.062;2022-07-24T13:27:06;43.60;20.30
7388;DHT22;3735;50.136;11.062;2022-07-24T13:29:34;43.80;20.80
7388;DHT22;3735;50.136;11.062;2022-07-24T13:32:01;44.00;20.40
7388;DHT22;3735;50.136;11.062;2022-07-24T13:34:27;43.50;19.80
7388;DHT22;3735;50.136;11.062;2022-07-24T13:36:57;43.00;20.30
7388;DHT22;3735;50.136;11.062;2022-07-24T13:39:23;42.90;21.00
7388;DHT22;3735;50.136;11.062;2022-07-24T13:41:49;43.20;20.90
7388;DHT22;3735;50.136;11.062;2022-07-24T13:44:15;43.20;20.70
7388;DHT22;3735;50.136;11.062;2022-07-24T13:46:41;43.30;20.20
7388;DHT22;3735;50.136;11.062;2022-07-24T13:49:07;43.00;20.50
7388;DHT22;3735;50.136;11.062;2022-07-24T13:51:35;43.00;20.50
7388;DHT22;3735;50.136;11.062;2022-07-24T13:54:01;43.00;21.80
7388;DHT22;3735;50.136;11.062;2022-07-24T13:56:27;43.10;21.70
7388;DHT22;3735;50.136;11.062;2022-07-24T13:58:53;43.40;21.30
7388;DHT22;3735;50.136;11.062;2022-07-24T14:01:19;43.30;20.30
7388;DHT22;3735;50.136;11.062;2022-07-24T14:03:46;42.90;20.90
7388;DHT22;3735;50.136;11.062;2022-07-24T14:06:12;43.00;21.00
7388;DHT22;3735;50.136;11.062;2022-07-24T14:08:38;43.00;21.30
7388;DHT22;3735;50.136;11.062;2022-07-24T14:11:06;43.10;20.70
7388;DHT22;3735;50.136;11.062;2022-07-24T14:13:32;42.70;20.60
7388;DHT22;3735;50.136;11.062;2022-07-24T14:15:59;42.40;21.00
7388;DHT22;3735;50.136;11.062;2022-07-24T14:18:25;42.40;21.40
7388;DHT22;3735;50.136;11.062;2022-07-24T14:20:51;42.80;21.40
7388;DHT22;3735;50.136;11.062;2022-07-24T14:23:17;43.00;21.00
7388;DHT22;3735;50.136;11.062;2022-07-24T14:25:44;43.20;20.90
7388;DHT22;3735;50.136;11.062;2022-07-24T14:28:14;42.70;20.60
7388;DHT22;3735;50.136;11.062;2022-07-24T14:30:40;42.50;21.30
7388;DHT22;3735;50.136;11.062;2022-07-24T14:33:06;42.30;21.00
7388;DHT22;3735;50.136;11.062;2022-07-24T14:35:32;42.20;21.50
7388;DHT22;3735;50.136;11.062;2022-07-24T14:37:59;42.30;21.70
7388;DHT22;3735;50.136;11.062;2022-07-24T14:40:25;42.40;21.40
7388;DHT22;3735;50.136;11.062;2022-07-24T14:42:51;42.00;21.10
7388;DHT22;3735;50.136;11.062;2022-07-24T14:45:17;41.60;21.10
7388;DHT22;3735;50.136;11.062;2022-07-24T14:47:43;41.50;21.50
7388;DHT22;3735;50.136;11.062;2022-07-24T14:50:09;41.70;21.40
7388;DHT22;3735;50.136;11.062;2022-07-24T14:52:36;41.50;21.80
7388;DHT22;3735;50.136;11.062;2022-07-24T14:55:06;41.60;22.30
7388;DHT22;3735;50.136;11.062;2022-07-24T14:57:33;41.50;21.80
7388;DHT22;3735;50.136;11.062;2022-07-24T14:59:59;41.80;21.80
7388;DHT22;3735;50.136;11.062;2022-07-24T15:02:25;42.10;21.40
7388;DHT22;3735;50.136;11.062;2022-07-24T15:04:51;42.50;21.20
7388;DHT22;3735;50.136;11.062;2022-07-24T15:07:17;43.00;21.00
7388;DHT22;3735;50.136;11.062;2022-07-24T15:09:43;43.00;20.70
7388;DHT22;3735;50.136;11.062;2022-07-24T15:12:09;42.60;20.80
7388;DHT22;3735;50.136;11.062;2022-07-24T15:14:35;42.40;21.20
7388;DHT22;3735;50.136;11.062;2022-07-24T15:17:01;42.40;21.30
7388;DHT22;3735;50.136;11.062;2022-07-24T15:19:27;42.30;21.20
7388;DHT22;3735;50.136;11.062;2022-07-24T15:21:53;42.20;21.30
7388;DHT22;3735;50.136;11.062;2022-07-24T15:24:19;41.90;21.00
7388;DHT22;3735;50.136;11.062;2022-07-24T15:26:45;41.60;21.50
7388;DHT22;3735;50.136;11.062;2022-07-24T15:29:11;41.40;22.20
7388;DHT22;3735;50.136;11.062;2022-07-24T15:31:37;41.40;22.00
7388;DHT22;3735;50.136;11.062;2022-07-24T15:34:03;41.50;22.40
7388;DHT22;3735;50.136;11.062;2022-07-24T15:36:29;41.50;21.80
7388;DHT22;3735;50.136;11.062;2022-07-24T15:38:55;41.50;21.50
7388;DHT22;3735;50.136;11.062;2022-07-24T15:41:20;41.30;22.20
7388;DHT22;3735;50.136;11.062;2022-07-24T15:43:46;41.30;22.30
7388;DHT22;3735;50.136;11.062;2022-07-24T15:46:12;41.00;21.80
7388;DHT22;3735;50.136;11.062;2022-07-24T15:48:38;40.40;21.80
7388;DHT22;3735;50.136;11.062;2022-07-24T15:51:04;39.80;22.60
7388;DHT22;3735;50.136;11.062;2022-07-24T15:53:29;39.40;23.40
7388;DHT22;3735;50.136;11.062;2022-07-24T15:55:55;38.90;23.80
7388;DHT22;3735;50.136;11.062;2022-07-24T15:58:21;37.90;24.20
7388;DHT22;3735;50.136;11.062;2022-07-24T16:00:47;36.90;25.70
7388;DHT22;3735;50.136;11.062;2022-07-24T16:03:13;36.10;27.30
7388;DHT22;3735;50.136;11.062;2022-07-24T16:05:38;35.60;28.80
7388;DHT22;3735;50.136;11.062;2022-07-24T16:08:04;35.30;29.50
7388;DHT22;3735;50.136;11.062;2022-07-24T16:10:31;35.60;29.90
7388;DHT22;3735;50.136;11.062;2022-07-24T16:12:57;36.30;30.00
7388;DHT22;3735;50.136;11.062;2022-07-24T16:15:23;36.80;28.30
7388;DHT22;3735;50.136;11.062;2022-07-24T16:17:49;36.90;28.50
7388;DHT22;3735;50.136;11.062;2022-07-24T16:20:15;36.90;28.00
7388;DHT22;3735;50.136;11.062;2022-07-24T16:22:42;36.80;28.40
7388;DHT22;3735;50.136;11.062;2022-07-24T16:25:09;36.20;29.00
7388;DHT22;3735;50.136;11.062;2022-07-24T16:27:35;35.40;30.20